createdAt,value
2023-02-13T00:00:38.292Z,7.61
2023-02-13T00:03:06.274Z,7.72
2023-02-13T00:05:32.972Z,6.74
2023-02-13T00:07:59.668Z,7.43
2023-02-13T00:10:26.350Z,6.99
2023-02-13T00:12:53.058Z,7.30
2023-02-13T00:15:19.741Z,7.32
2023-02-13T00:17:46.428Z,6.99
2023-02-13T00:20:13.215Z,6.29
2023-02-13T00:22:39.895Z,5.82
2023-02-13T00:25:07.176Z,6.55
2023-02-13T00:27:33.987Z,6.53
2023-02-13T00:30:00.738Z,6.33
2023-02-13T00:32:27.409Z,6.29
2023-02-13T00:34:54.094Z,6.66
2023-02-13T00:37:20.734Z,6.45
2023-02-13T00:39:47.475Z,7.42
2023-02-13T00:42:14.143Z,6.90
2023-02-13T00:44:40.841Z,6.89
2023-02-13T00:47:07.517Z,6.71
2023-02-13T00:49:34.188Z,7.08
2023-02-13T00:52:00.886Z,7.40
2023-02-13T00:54:27.575Z,7.40
2023-02-13T00:56:54.231Z,7.11
2023-02-13T00:59:21.054Z,7.20
2023-02-13T01:01:47.753Z,6.74
2023-02-13T01:04:14.451Z,7.42
2023-02-13T01:06:41.248Z,6.67
2023-02-13T01:09:07.928Z,7.39
2023-02-13T01:11:34.596Z,7.16
2023-02-13T01:14:01.395Z,6.89
2023-02-13T01:16:28.198Z,7.87
2023-02-13T01:18:54.945Z,7.10
2023-02-13T01:21:22.091Z,6.99
2023-02-13T01:23:48.869Z,6.78
2023-02-13T01:26:21.606Z,6.83
2023-02-13T01:28:48.377Z,6.82
2023-02-13T01:31:15.313Z,7.02
2023-02-13T01:33:42.084Z,7.03
2023-02-13T01:36:10.027Z,5.87
2023-02-13T01:38:36.743Z,4.59
2023-02-13T01:41:03.476Z,6.57
2023-02-13T01:43:50.089Z,7.27
2023-02-13T01:46:18.681Z,7.94
2023-02-13T01:48:45.498Z,7.58
2023-02-13T01:51:13.696Z,7.27
2023-02-13T01:53:42.368Z,6.71
2023-02-13T01:56:11.452Z,6.89
2023-02-13T01:58:38.504Z,6.14
2023-02-13T02:01:05.286Z,6.71
2023-02-13T02:03:33.547Z,6.66
2023-02-13T02:06:00.204Z,6.29
2023-02-13T02:08:26.872Z,6.53
2023-02-13T02:10:54.272Z,6.64
2023-02-13T02:13:21.471Z,6.30
2023-02-13T02:15:49.024Z,6.11
2023-02-13T02:18:16.596Z,6.25
2023-02-13T02:21:01.716Z,6.09
2023-02-13T02:23:46.824Z,5.79
2023-02-13T02:26:16.254Z,6.78
2023-02-13T02:28:42.884Z,6.37
2023-02-13T02:31:15.330Z,5.65
2023-02-13T02:34:00.780Z,5.58
2023-02-13T02:36:30.339Z,5.91
2023-02-13T02:39:00.001Z,6.06
2023-02-13T02:41:41.896Z,5.92
2023-02-13T02:44:17.816Z,5.99
2023-02-13T02:47:04.385Z,6.34
2023-02-13T02:49:49.446Z,6.84
2023-02-13T02:52:18.140Z,6.57
2023-02-13T02:55:07.312Z,6.34
2023-02-13T02:57:53.605Z,6.05
2023-02-13T03:00:39.793Z,6.24
2023-02-13T03:03:25.292Z,6.23
2023-02-13T03:06:10.605Z,4.92
2023-02-13T03:08:56.375Z,5.07
2023-02-13T03:11:41.544Z,5.54
2023-02-13T03:14:08.396Z,5.84
2023-02-13T03:16:53.835Z,6.08
2023-02-13T03:19:41.982Z,6.14
2023-02-13T03:22:27.348Z,5.80
2023-02-13T03:25:02.438Z,4.45
2023-02-13T03:27:50.811Z,5.78
2023-02-13T03:30:34.119Z,5.88
2023-02-13T03:33:00.920Z,5.66
2023-02-13T03:35:53.405Z,5.59
2023-02-13T03:38:24.838Z,5.78
2023-02-13T03:41:16.175Z,4.99
2023-02-13T03:43:45.658Z,4.80
2023-02-13T03:46:12.392Z,4.99
2023-02-13T03:48:57.880Z,4.69
2023-02-13T03:51:27.661Z,4.73
2023-02-13T03:53:56.576Z,5.26
2023-02-13T03:56:42.024Z,5.32
2023-02-13T03:59:18.368Z,6.30
2023-02-13T04:01:46.794Z,6.52
2023-02-13T04:04:15.936Z,6.03
2023-02-13T04:07:02.912Z,6.31
2023-02-13T04:09:29.906Z,6.11
2023-02-13T04:11:59.103Z,6.60
2023-02-13T04:14:27.976Z,6.61
2023-02-13T04:16:58.606Z,6.65
2023-02-13T04:19:25.815Z,5.88
2023-02-13T04:21:56.545Z,6.33
2023-02-13T04:24:23.312Z,5.82
2023-02-13T04:26:50.046Z,6.45
2023-02-13T04:29:16.719Z,6.05
2023-02-13T04:31:43.603Z,6.59
2023-02-13T04:34:10.453Z,6.58
2023-02-13T04:36:37.154Z,5.29
2023-02-13T04:39:03.909Z,5.71
2023-02-13T04:41:30.626Z,5.87
2023-02-13T04:43:57.388Z,6.41
2023-02-13T04:46:24.173Z,5.96
2023-02-13T04:48:50.906Z,5.80
2023-02-13T04:51:17.675Z,5.69
2023-02-13T04:53:44.387Z,5.66
2023-02-13T04:56:11.246Z,6.21
2023-02-13T04:58:37.948Z,6.04
2023-02-13T05:01:11.630Z,5.21
2023-02-13T05:03:38.344Z,5.46
2023-02-13T05:06:05.185Z,5.96
2023-02-13T05:08:31.883Z,5.88
2023-02-13T05:10:58.847Z,5.69
2023-02-13T05:13:25.723Z,6.06
2023-02-13T05:15:55.133Z,6.68
2023-02-13T05:18:21.912Z,6.52
2023-02-13T05:21:11.273Z,6.99
2023-02-13T05:23:38.074Z,6.71
2023-02-13T05:26:04.982Z,6.67
2023-02-13T05:28:50.422Z,6.85
2023-02-13T05:31:17.342Z,6.59
2023-02-13T05:33:44.113Z,5.31
2023-02-13T05:36:10.843Z,5.12
2023-02-13T05:38:37.577Z,4.91
2023-02-13T05:41:04.324Z,5.49
2023-02-13T05:43:31.083Z,5.77
2023-02-13T05:46:07.598Z,5.30
2023-02-13T05:48:34.697Z,5.03
2023-02-13T05:51:01.736Z,6.30
2023-02-13T05:53:29.943Z,5.84
2023-02-13T05:55:56.867Z,5.42
2023-02-13T05:58:23.862Z,5.51
2023-02-13T06:00:50.643Z,5.81
2023-02-13T06:03:17.329Z,5.31
2023-02-13T06:05:44.100Z,5.75
2023-02-13T06:08:10.871Z,5.58
2023-02-13T06:10:37.601Z,6.24
2023-02-13T06:13:04.281Z,6.12
2023-02-13T06:15:31.016Z,6.40
2023-02-13T06:17:57.849Z,5.67
2023-02-13T06:20:24.716Z,5.88
2023-02-13T06:22:51.781Z,6.33
2023-02-13T06:25:18.534Z,5.92
2023-02-13T06:27:45.379Z,5.65
2023-02-13T06:30:12.400Z,6.91
2023-02-13T06:32:39.193Z,6.52
2023-02-13T06:35:06.265Z,6.14
2023-02-13T06:37:33.105Z,6.12
2023-02-13T06:39:59.813Z,6.12
2023-02-13T06:42:26.512Z,6.14
2023-02-13T06:44:53.264Z,6.01
2023-02-13T06:47:20.049Z,6.43
2023-02-13T06:49:46.857Z,6.72
2023-02-13T06:52:13.641Z,6.59
2023-02-13T06:54:47.246Z,6.03
2023-02-13T06:57:15.177Z,6.51
2023-02-13T06:59:42.108Z,6.49
2023-02-13T07:02:12.230Z,6.03
2023-02-13T07:04:38.933Z,6.07
2023-02-13T07:07:05.708Z,5.57
2023-02-13T07:09:32.347Z,4.85
2023-02-13T07:11:59.019Z,6.03
2023-02-13T07:14:25.692Z,6.21
2023-02-13T07:16:52.329Z,6.76
2023-02-13T07:19:19.125Z,6.98
2023-02-13T07:21:45.845Z,7.52
2023-02-13T07:24:12.545Z,7.74
2023-02-13T07:26:39.185Z,8.71
2023-02-13T07:29:11.627Z,9.51
2023-02-13T07:31:39.425Z,9.81
2023-02-13T07:34:06.214Z,10.26
2023-02-13T07:36:32.879Z,10.20
2023-02-13T07:38:59.592Z,9.79
2023-02-13T07:41:27.119Z,9.96
2023-02-13T07:43:54.451Z,9.75
2023-02-13T07:46:21.271Z,11.22
2023-02-13T07:48:47.965Z,11.43
2023-02-13T07:51:14.835Z,11.99
2023-02-13T07:53:41.519Z,12.37
2023-02-13T07:56:08.519Z,12.63
2023-02-13T07:58:35.946Z,13.31
2023-02-13T08:01:09.333Z,13.58
2023-02-13T08:03:57.149Z,13.69
2023-02-13T08:06:25.222Z,13.72
2023-02-13T08:09:11.795Z,13.48
2023-02-13T08:11:56.569Z,14.10
2023-02-13T08:14:23.921Z,14.41
2023-02-13T08:16:50.814Z,14.75
2023-02-13T08:19:17.552Z,14.95
2023-02-13T08:21:44.260Z,15.60
2023-02-13T08:24:11.051Z,16.18
2023-02-13T08:26:37.687Z,16.96
2023-02-13T08:29:04.778Z,16.43
2023-02-13T08:31:31.710Z,15.83
2023-02-13T08:33:58.532Z,16.44
2023-02-13T08:36:25.261Z,16.69
2023-02-13T08:38:51.994Z,16.40
2023-02-13T08:41:19.463Z,17.11
2023-02-13T08:43:46.136Z,17.54
2023-02-13T08:46:12.871Z,17.57
2023-02-13T08:48:39.613Z,17.57
2023-02-13T08:51:09.926Z,17.38
2023-02-13T08:53:37.038Z,15.95
2023-02-13T08:56:03.855Z,17.46
2023-02-13T08:58:30.606Z,17.24
2023-02-13T09:00:57.449Z,17.20
2023-02-13T09:03:24.233Z,17.23
2023-02-13T09:05:50.924Z,16.74
2023-02-13T09:08:18.836Z,15.16
2023-02-13T09:10:45.755Z,14.97
2023-02-13T09:13:12.644Z,15.67
2023-02-13T09:15:40.613Z,13.10
2023-02-13T09:18:07.535Z,13.71
2023-02-13T09:20:35.798Z,14.37
2023-02-13T09:23:02.845Z,15.59
2023-02-13T09:25:29.573Z,14.33
2023-02-13T09:27:56.264Z,13.49
2023-02-13T09:30:26.034Z,13.33
2023-02-13T09:32:53.078Z,14.43
2023-02-13T09:35:20.370Z,13.51
2023-02-13T09:37:47.255Z,14.44
2023-02-13T09:40:27.763Z,13.97
2023-02-13T09:42:55.283Z,14.24
2023-02-13T09:45:22.030Z,13.27
2023-02-13T09:47:51.834Z,13.23
2023-02-13T09:50:34.938Z,13.98
2023-02-13T09:53:01.806Z,14.07
2023-02-13T09:55:28.955Z,13.44
2023-02-13T09:58:20.599Z,13.13
2023-02-13T10:00:50.886Z,13.64
2023-02-13T10:03:17.824Z,13.97
2023-02-13T10:05:50.224Z,14.04
2023-02-13T10:08:35.559Z,12.62
2023-02-13T10:11:05.371Z,12.38
2023-02-13T10:13:50.589Z,13.11
2023-02-13T10:16:31.312Z,13.37
2023-02-13T10:18:59.285Z,14.11
2023-02-13T10:21:28.905Z,13.82
2023-02-13T10:24:03.311Z,14.59
2023-02-13T10:26:42.889Z,14.32
2023-02-13T10:29:31.244Z,13.67
2023-02-13T10:32:00.829Z,13.66
2023-02-13T10:34:27.659Z,13.86
2023-02-13T10:36:54.370Z,12.98
2023-02-13T10:39:25.774Z,12.66
2023-02-13T10:41:59.164Z,13.65
2023-02-13T10:44:44.596Z,12.63
2023-02-13T10:47:29.455Z,12.21
2023-02-13T10:49:59.360Z,11.44
2023-02-13T10:52:26.064Z,11.59
2023-02-13T10:55:11.622Z,12.20
2023-02-13T10:57:57.680Z,12.77
2023-02-13T11:00:46.876Z,13.08
2023-02-13T11:03:16.262Z,12.68
2023-02-13T11:05:42.995Z,11.85
2023-02-13T11:08:33.018Z,11.44
2023-02-13T11:10:59.727Z,11.82
2023-02-13T11:13:27.457Z,11.58
2023-02-13T11:16:17.306Z,11.32
2023-02-13T11:18:44.470Z,11.00
2023-02-13T11:21:13.473Z,11.54
2023-02-13T11:23:44.410Z,12.25
2023-02-13T11:26:37.256Z,11.57
2023-02-13T11:29:15.445Z,11.14
2023-02-13T11:31:42.243Z,10.99
2023-02-13T11:34:25.664Z,11.53
2023-02-13T11:37:16.182Z,11.16
2023-02-13T11:39:43.586Z,11.40
2023-02-13T11:42:29.810Z,11.64
2023-02-13T11:44:59.119Z,11.34
2023-02-13T11:47:35.365Z,11.66
2023-02-13T11:50:03.180Z,10.55
2023-02-13T11:52:34.275Z,10.96
2023-02-13T11:55:05.018Z,10.94
2023-02-13T11:57:32.983Z,10.92
2023-02-13T12:00:00.429Z,10.63
2023-02-13T12:02:28.261Z,9.98
2023-02-13T12:05:13.549Z,9.71
2023-02-13T12:07:40.219Z,10.82
2023-02-13T12:10:19.278Z,11.02
2023-02-13T12:13:09.077Z,10.52
2023-02-13T12:15:36.568Z,10.87
2023-02-13T12:18:22.095Z,11.72
2023-02-13T12:20:54.174Z,10.88
2023-02-13T12:23:28.508Z,10.68
2023-02-13T12:25:58.508Z,11.52
2023-02-13T12:28:33.170Z,11.34
2023-02-13T12:31:05.947Z,10.92
2023-02-13T12:33:51.898Z,11.61
2023-02-13T12:36:22.013Z,11.40
2023-02-13T12:39:00.990Z,10.31
2023-02-13T12:41:36.450Z,10.71
2023-02-13T12:44:14.601Z,10.85
2023-02-13T12:46:41.294Z,9.57
2023-02-13T12:49:17.370Z,9.36
2023-02-13T12:51:50.213Z,10.02
2023-02-13T12:54:16.872Z,9.35
2023-02-13T12:57:02.538Z,9.80
2023-02-13T12:59:31.605Z,8.57
2023-02-13T13:02:01.247Z,8.88
2023-02-13T13:04:48.339Z,9.28
2023-02-13T13:07:27.423Z,9.15
2023-02-13T13:09:54.118Z,8.86
2023-02-13T13:12:26.694Z,8.85
2023-02-13T13:14:59.617Z,9.02
2023-02-13T13:17:39.266Z,9.53
2023-02-13T13:20:08.944Z,9.57
2023-02-13T13:22:38.609Z,8.95
2023-02-13T13:25:11.767Z,9.39
2023-02-13T13:27:40.363Z,9.52
2023-02-13T13:30:19.524Z,9.55
2023-02-13T13:32:46.320Z,10.71
2023-02-13T13:35:16.230Z,10.22
2023-02-13T13:37:45.386Z,10.43
2023-02-13T13:40:30.897Z,11.11
2023-02-13T13:43:02.291Z,11.40
2023-02-13T13:45:28.951Z,11.57
2023-02-13T13:48:14.445Z,10.27
2023-02-13T13:50:41.988Z,9.64
2023-02-13T13:53:08.645Z,10.92
2023-02-13T13:55:49.920Z,10.27
2023-02-13T13:58:25.758Z,10.82
2023-02-13T14:01:11.077Z,10.54
2023-02-13T14:03:40.168Z,11.05
2023-02-13T14:06:08.009Z,10.19
2023-02-13T14:08:37.485Z,10.12
2023-02-13T14:11:05.379Z,10.88
2023-02-13T14:13:34.834Z,10.46
2023-02-13T14:16:02.013Z,10.05
2023-02-13T14:18:28.832Z,9.94
2023-02-13T14:21:00.074Z,10.06
2023-02-13T14:23:50.430Z,9.13
2023-02-13T14:26:17.130Z,9.74
2023-02-13T14:28:44.664Z,10.58
2023-02-13T14:31:27.541Z,9.63
2023-02-13T14:34:01.461Z,9.77
2023-02-13T14:36:33.557Z,10.22
2023-02-13T14:39:18.814Z,10.14
2023-02-13T14:41:51.392Z,10.65
2023-02-13T14:44:32.473Z,10.03
2023-02-13T14:47:00.505Z,9.73
2023-02-13T14:49:28.576Z,9.58
2023-02-13T14:51:59.152Z,10.27
2023-02-13T14:54:36.728Z,10.96
2023-02-13T14:57:10.381Z,11.46
2023-02-13T14:59:37.557Z,11.25
2023-02-13T15:02:13.318Z,11.19
2023-02-13T15:04:43.973Z,9.97
2023-02-13T15:07:25.045Z,10.50
2023-02-13T15:10:04.770Z,10.68
2023-02-13T15:12:32.732Z,10.28
2023-02-13T15:15:01.553Z,10.27
2023-02-13T15:17:30.282Z,10.69
2023-02-13T15:20:00.211Z,10.84
2023-02-13T15:22:33.994Z,11.30
2023-02-13T15:25:00.728Z,10.32
2023-02-13T15:27:31.330Z,10.61
2023-02-13T15:30:05.656Z,10.68
2023-02-13T15:32:37.007Z,10.66
2023-02-13T15:35:22.646Z,10.90
2023-02-13T15:37:49.348Z,10.54
2023-02-13T15:40:17.402Z,10.90
2023-02-13T15:42:44.097Z,10.69
2023-02-13T15:45:14.192Z,9.60
2023-02-13T15:47:40.859Z,9.45
2023-02-13T15:50:15.199Z,9.78
2023-02-13T15:52:41.912Z,9.95
2023-02-13T15:55:18.391Z,10.03
2023-02-13T15:57:45.081Z,9.73
2023-02-13T16:00:17.999Z,9.31
2023-02-13T16:02:46.373Z,9.22
2023-02-13T16:05:13.378Z,9.39
2023-02-13T16:07:48.482Z,9.37
2023-02-13T16:10:16.267Z,9.38
2023-02-13T16:12:45.403Z,9.17
2023-02-13T16:15:19.146Z,8.85
2023-02-13T16:17:46.205Z,8.91
2023-02-13T16:20:12.893Z,9.42
2023-02-13T16:22:45.777Z,9.43
2023-02-13T16:25:12.434Z,9.08
2023-02-13T16:27:52.564Z,9.54
2023-02-13T16:30:35.606Z,9.45
2023-02-13T16:33:17.426Z,9.44
2023-02-13T16:35:44.860Z,9.42
2023-02-13T16:38:27.285Z,9.82
2023-02-13T16:40:55.776Z,9.15
2023-02-13T16:43:39.233Z,8.72
2023-02-13T16:46:12.246Z,8.99
2023-02-13T16:48:38.989Z,8.73
2023-02-13T16:51:05.645Z,8.42
2023-02-13T16:53:34.201Z,9.13
2023-02-13T16:56:10.899Z,8.74
2023-02-13T16:58:37.589Z,8.49
2023-02-13T17:01:04.345Z,8.89
2023-02-13T17:03:32.098Z,8.54
2023-02-13T17:06:02.379Z,8.57
2023-02-13T17:08:30.618Z,9.18
2023-02-13T17:11:07.399Z,9.57
2023-02-13T17:13:34.216Z,9.63
2023-02-13T17:16:00.884Z,10.12
2023-02-13T17:18:27.632Z,9.98
2023-02-13T17:20:54.312Z,9.93
2023-02-13T17:23:22.669Z,9.70
2023-02-13T17:25:49.933Z,9.53
2023-02-13T17:28:18.272Z,9.86
2023-02-13T17:30:45.162Z,10.05
2023-02-13T17:33:15.584Z,10.10
2023-02-13T17:35:42.278Z,10.07
2023-02-13T17:38:09.828Z,10.22
2023-02-13T17:40:36.533Z,10.43
2023-02-13T17:43:03.257Z,9.56
2023-02-13T17:45:31.479Z,9.69
2023-02-13T17:47:58.376Z,9.05
2023-02-13T17:50:28.370Z,7.77
2023-02-13T17:52:55.081Z,8.97
2023-02-13T17:55:22.954Z,8.83
2023-02-13T17:57:49.639Z,9.47
2023-02-13T18:00:16.800Z,9.50
2023-02-13T18:02:43.483Z,9.37
2023-02-13T18:05:10.317Z,10.17
2023-02-13T18:07:36.981Z,10.11
2023-02-13T18:10:03.713Z,10.62
2023-02-13T18:12:30.397Z,10.02
2023-02-13T18:14:57.079Z,9.65
2023-02-13T18:17:23.809Z,10.19
2023-02-13T18:19:51.016Z,9.90
2023-02-13T18:22:17.643Z,10.00
2023-02-13T18:24:44.346Z,10.71
2023-02-13T18:27:13.641Z,10.68
2023-02-13T18:29:40.429Z,11.32
2023-02-13T18:32:10.221Z,10.82
2023-02-13T18:34:37.453Z,10.12
2023-02-13T18:37:04.485Z,10.50
2023-02-13T18:39:32.509Z,10.04
2023-02-13T18:41:59.502Z,10.38
2023-02-13T18:44:28.742Z,9.90
2023-02-13T18:46:55.901Z,10.36
2023-02-13T18:49:22.553Z,9.93
2023-02-13T18:51:49.219Z,10.85
2023-02-13T18:54:16.555Z,10.73
2023-02-13T18:56:43.228Z,10.65
2023-02-13T18:59:09.873Z,10.11
2023-02-13T19:01:36.820Z,10.18
2023-02-13T19:04:03.923Z,10.55
2023-02-13T19:06:30.741Z,11.17
2023-02-13T19:08:57.584Z,10.64
2023-02-13T19:11:25.068Z,9.36
2023-02-13T19:13:55.762Z,10.49
2023-02-13T19:16:22.954Z,10.74
2023-02-13T19:18:53.110Z,10.11
2023-02-13T19:21:24.075Z,10.37
2023-02-13T19:23:51.104Z,10.15
2023-02-13T19:26:18.902Z,10.17
2023-02-13T19:28:45.663Z,10.36
2023-02-13T19:31:15.193Z,10.71
2023-02-13T19:33:42.290Z,11.12
2023-02-13T19:36:11.936Z,11.12
2023-02-13T19:38:39.006Z,10.52
2023-02-13T19:41:06.170Z,10.28
2023-02-13T19:43:33.132Z,10.80
2023-02-13T19:46:05.832Z,10.55
2023-02-13T19:48:32.592Z,10.27
2023-02-13T19:50:59.539Z,10.04
2023-02-13T19:53:26.396Z,9.61
2023-02-13T19:55:58.492Z,9.42
2023-02-13T19:58:25.222Z,9.30
2023-02-13T20:00:51.851Z,9.60
2023-02-13T20:03:18.511Z,9.86
2023-02-13T20:05:45.193Z,10.01
2023-02-13T20:08:11.987Z,8.74
2023-02-13T20:10:38.718Z,9.74
2023-02-13T20:13:05.392Z,10.10
2023-02-13T20:15:32.496Z,10.46
2023-02-13T20:17:59.205Z,10.68
2023-02-13T20:20:27.973Z,10.98
2023-02-13T20:22:54.712Z,11.12
2023-02-13T20:25:22.251Z,11.29
2023-02-13T20:27:48.959Z,11.09
2023-02-13T20:30:16.120Z,11.18
2023-02-13T20:32:42.948Z,11.10
2023-02-13T20:35:09.666Z,10.91
2023-02-13T20:37:36.410Z,12.05
2023-02-13T20:40:03.069Z,11.61
2023-02-13T20:42:32.071Z,11.80
2023-02-13T20:44:58.725Z,11.84
2023-02-13T20:47:25.390Z,10.89
2023-02-13T20:49:52.084Z,11.54
2023-02-13T20:52:18.803Z,11.54
2023-02-13T20:54:45.510Z,11.45
2023-02-13T20:57:13.373Z,11.36
2023-02-13T20:59:42.775Z,11.44
2023-02-13T21:02:09.924Z,10.89
2023-02-13T21:04:36.665Z,10.60
2023-02-13T21:07:03.741Z,10.67
2023-02-13T21:09:30.452Z,10.19
2023-02-13T21:11:57.103Z,10.53
2023-02-13T21:14:24.602Z,10.61
2023-02-13T21:16:51.293Z,10.91
2023-02-13T21:19:19.332Z,10.89
2023-02-13T21:21:46.341Z,10.48
2023-02-13T21:24:15.359Z,10.11
2023-02-13T21:26:42.263Z,10.16
2023-02-13T21:29:08.954Z,9.99
2023-02-13T21:31:37.264Z,10.32
2023-02-13T21:34:05.008Z,9.68
2023-02-13T21:36:32.070Z,10.19
2023-02-13T21:38:58.789Z,10.24
2023-02-13T21:41:25.568Z,10.76
2023-02-13T21:43:52.223Z,10.67
2023-02-13T21:46:20.760Z,10.55
2023-02-13T21:48:47.745Z,10.33
2023-02-13T21:51:15.364Z,10.69
2023-02-13T21:53:42.360Z,10.77
2023-02-13T21:56:11.027Z,10.21
2023-02-13T21:58:38.251Z,9.55
2023-02-13T22:01:23.817Z,10.10
2023-02-13T22:03:51.907Z,10.76
2023-02-13T22:06:20.031Z,10.17
2023-02-13T22:08:46.767Z,10.25
2023-02-13T22:11:13.450Z,9.97
2023-02-13T22:13:40.096Z,10.82
2023-02-13T22:16:07.998Z,11.56
2023-02-13T22:18:38.883Z,9.82
2023-02-13T22:21:06.332Z,9.49
2023-02-13T22:23:36.419Z,9.72
2023-02-13T22:26:03.921Z,10.13
2023-02-13T22:28:30.985Z,10.71
2023-02-13T22:30:58.047Z,11.07
2023-02-13T22:33:24.905Z,9.92
2023-02-13T22:35:51.547Z,9.82
2023-02-13T22:38:18.249Z,10.43
2023-02-13T22:40:44.898Z,10.07
2023-02-13T22:43:11.563Z,9.41
2023-02-13T22:45:38.439Z,9.94
2023-02-13T22:48:05.675Z,9.90
2023-02-13T22:50:32.586Z,9.03
2023-02-13T22:52:59.293Z,10.09
2023-02-13T22:55:26.174Z,10.06
2023-02-13T22:57:55.746Z,10.29
2023-02-13T23:00:22.906Z,9.91
2023-02-13T23:02:50.038Z,10.89
2023-02-13T23:05:17.137Z,10.18
2023-02-13T23:07:43.928Z,10.40
2023-02-13T23:10:11.050Z,10.91
2023-02-13T23:12:39.208Z,10.74
2023-02-13T23:15:07.464Z,10.86
2023-02-13T23:17:53.250Z,10.73
2023-02-13T23:20:20.685Z,11.30
2023-02-13T23:22:47.496Z,10.98
2023-02-13T23:25:14.336Z,10.66
2023-02-13T23:27:41.087Z,10.56
2023-02-13T23:30:08.299Z,9.82
2023-02-13T23:32:35.042Z,10.01
2023-02-13T23:35:01.718Z,9.57
2023-02-13T23:37:28.445Z,9.62
2023-02-13T23:39:55.220Z,9.56
2023-02-13T23:42:21.936Z,9.64
2023-02-13T23:44:48.593Z,9.39
2023-02-13T23:47:15.342Z,10.07
2023-02-13T23:49:42.125Z,10.35
2023-02-13T23:52:08.819Z,10.02
2023-02-13T23:54:35.643Z,10.49
2023-02-13T23:57:02.289Z,10.80
2023-02-13T23:59:28.939Z,10.65
